Time;durP1;ratioP1;P1;durP2;ratioP2;P2;SDS_P1;SDS_P2;PMS_P1;PMS_P2;Temp;Humidity;BMP_temperature;BMP_pressure;BME280_temperature;BME280_humidity;BME280_pressure;Samples;Min_cycle;Max_cycle;Signal;HPM_P1;HPM_P2
2021/08/25 00:00:58;;;;;;;14.38;11.50;;;13.80;29.00;;;;;;5082573;28;20043;-73
2021/08/25 00:03:26;;;;;;;13.68;11.32;;;13.80;29.60;;;;;;5086080;28;20135;-72
2021/08/25 00:05:55;;;;;;;11.82;10.57;;;13.80;30.00;;;;;;5085622;28;20059;-74
2021/08/25 00:08:23;;;;;;;12.60;10.93;;;13.70;29.90;;;;;;5082064;28;20245;-74
2021/08/25 00:10:51;;;;;;;13.00;10.80;;;13.70;29.90;;;;;;5076955;28;20110;-74
2021/08/25 00:13:20;;;;;;;13.65;11.40;;;13.70;29.90;;;;;;5081222;28;20429;-73
2021/08/25 00:15:49;;;;;;;14.02;10.77;;;13.70;29.80;;;;;;5078134;28;20096;-73
2021/08/25 00:18:17;;;;;;;14.73;11.80;;;13.70;29.80;;;;;;5083180;28;20045;-73
2021/08/25 00:20:45;;;;;;;16.15;12.20;;;13.70;30.00;;;;;;5084783;28;20044;-73
2021/08/25 00:23:14;;;;;;;12.48;11.18;;;13.70;29.90;;;;;;5076946;28;20040;-73
2021/08/25 00:25:42;;;;;;;13.77;11.60;;;13.70;30.00;;;;;;5100253;27;20062;-73
2021/08/25 00:28:10;;;;;;;14.80;11.30;;;13.60;30.10;;;;;;5102065;28;20036;-73
2021/08/25 00:30:38;;;;;;;14.65;11.65;;;13.60;30.90;;;;;;5077848;28;20043;-73
2021/08/25 00:33:07;;;;;;;14.00;11.90;;;13.60;31.30;;;;;;5102776;28;20050;-73
2021/08/25 00:35:35;;;;;;;13.00;11.57;;;13.60;31.40;;;;;;5101968;27;20107;-73
2021/08/25 00:38:04;;;;;;;14.68;12.35;;;13.60;31.60;;;;;;5103603;28;20055;-73
2021/08/25 00:40:32;;;;;;;14.07;11.95;;;13.50;31.50;;;;;;5098824;28;20047;-73
2021/08/25 00:43:05;;;;;;;16.02;11.93;;;13.50;32.10;;;;;;5103026;28;20115;-73
2021/08/25 00:45:34;;;;;;;15.50;12.50;;;13.40;32.40;;;;;;5098751;28;20062;-73
2021/08/25 00:48:03;;;;;;;15.80;11.85;;;13.40;32.80;;;;;;5103466;27;20061;-73
2021/08/25 00:50:32;;;;;;;16.55;11.65;;;13.30;33.70;;;;;;5100989;28;20052;-73
2021/08/25 00:53:02;;;;;;;13.10;10.88;;;13.30;34.70;;;;;;5105158;28;20043;-73
2021/08/25 00:55:31;;;;;;;12.75;11.27;;;13.30;35.30;;;;;;5100420;27;20048;-73
2021/08/25 00:58:00;;;;;;;14.93;11.75;;;13.20;34.90;;;;;;5099667;27;20092;-73
2021/08/25 01:00:28;;;;;;;16.00;12.15;;;13.20;35.70;;;;;;5097527;28;20079;-73
2021/08/25 01:03:02;;;;;;;14.18;11.73;;;13.20;35.90;;;;;;5099778;28;20130;-73
2021/08/25 01:05:38;;;;;;;15.17;12.37;;;13.20;36.20;;;;;;5102064;28;20047;-73
2021/08/25 01:08:08;;;;;;;15.35;12.57;;;13.10;36.50;;;;;;5105775;27;20496;-73
2021/08/25 01:10:36;;;;;;;17.15;12.63;;;13.20;36.40;;;;;;5081383;28;20455;-73
2021/08/25 01:13:07;;;;;;;12.93;11.40;;;13.20;35.70;;;;;;5097217;28;20039;-73
2021/08/25 01:15:37;;;;;;;14.70;12.07;;;13.20;35.60;;;;;;5104957;28;20092;-73
2021/08/25 01:18:09;;;;;;;16.20;11.63;;;13.20;34.50;;;;;;5103188;28;20104;-73
2021/08/25 01:20:40;;;;;;;13.18;11.57;;;13.20;34.50;;;;;;5097400;28;20047;-73
2021/08/25 01:23:08;;;;;;;17.58;12.38;;;13.30;33.60;;;;;;5098275;28;20044;-73
2021/08/25 01:25:37;;;;;;;13.93;11.25;;;13.30;33.30;;;;;;5102261;28;20051;-73
2021/08/25 01:28:07;;;;;;;13.30;11.63;;;13.20;34.50;;;;;;5103274;28;20047;-73
2021/08/25 01:30:38;;;;;;;13.05;11.65;;;13.10;35.50;;;;;;5096900;28;20572;-74
2021/08/25 01:33:06;;;;;;;12.77;11.35;;;13.00;36.20;;;;;;5102363;28;20036;-73
2021/08/25 01:35:37;;;;;;;12.77;11.27;;;13.00;36.80;;;;;;5078974;28;20036;-73
2021/08/25 01:38:06;;;;;;;15.20;11.75;;;13.00;37.70;;;;;;5102083;28;20503;-73
2021/08/25 01:40:35;;;;;;;14.75;11.50;;;13.00;37.40;;;;;;5095287;28;20056;-73
2021/08/25 01:43:04;;;;;;;16.42;12.35;;;12.90;37.90;;;;;;5091326;27;20096;-73
2021/08/25 01:45:33;;;;;;;15.95;11.57;;;12.90;37.90;;;;;;5101896;28;20118;-73
2021/08/25 01:48:07;;;;;;;16.00;12.93;;;13.00;37.80;;;;;;5100172;28;20052;-73
2021/08/25 01:50:35;;;;;;;16.52;13.20;;;12.90;37.80;;;;;;5096073;28;20499;-73
2021/08/25 01:53:03;;;;;;;15.45;12.50;;;12.90;37.80;;;;;;5103719;28;20088;-73
2021/08/25 01:55:31;;;;;;;17.25;12.60;;;12.90;37.80;;;;;;5101178;27;20039;-73
2021/08/25 01:57:59;;;;;;;15.18;12.77;;;12.80;38.00;;;;;;5106009;28;20093;-73
2021/08/25 02:00:27;;;;;;;16.95;11.73;;;12.80;38.90;;;;;;5101715;28;20040;-72
2021/08/25 02:02:55;;;;;;;16.52;12.98;;;12.80;38.80;;;;;;5096169;28;20090;-73
2021/08/25 02:05:25;;;;;;;16.13;12.07;;;12.80;39.50;;;;;;5067131;28;20487;-73
2021/08/25 02:07:53;;;;;;;15.52;12.88;;;12.80;39.50;;;;;;5086559;28;20483;-73
2021/08/25 02:10:21;;;;;;;17.10;13.45;;;12.80;39.50;;;;;;5100062;28;20044;-73
2021/08/25 02:12:50;;;;;;;15.65;12.27;;;12.70;39.50;;;;;;5098920;28;20062;-73
2021/08/25 02:15:18;;;;;;;15.60;13.65;;;12.70;39.50;;;;;;5101200;28;20052;-72
2021/08/25 02:17:46;;;;;;;18.83;13.88;;;12.70;39.50;;;;;;5102662;28;20058;-72
2021/08/25 02:20:14;;;;;;;15.25;13.20;;;12.70;40.10;;;;;;5100542;28;20040;-73
2021/08/25 02:22:44;;;;;;;16.73;13.25;;;12.70;40.80;;;;;;5080186;28;20047;-72
2021/08/25 02:25:12;;;;;;;16.10;13.98;;;12.60;40.70;;;;;;5098049;28;20044;-73
2021/08/25 02:27:40;;;;;;;17.35;13.70;;;12.60;41.50;;;;;;5085665;28;20078;-72
2021/08/25 02:30:09;;;;;;;18.58;13.57;;;12.60;41.00;;;;;;5099649;28;20122;-72
2021/08/25 02:32:37;;;;;;;18.67;13.90;;;12.70;41.00;;;;;;5075054;28;20043;-72
2021/08/25 02:35:05;;;;;;;16.08;13.23;;;12.70;40.70;;;;;;5078515;28;20096;-72
2021/08/25 02:37:33;;;;;;;14.55;12.90;;;12.60;41.40;;;;;;5096702;28;20585;-73
2021/08/25 02:40:04;;;;;;;17.98;13.27;;;12.50;42.00;;;;;;5098303;28;20497;-73
2021/08/25 02:42:32;;;;;;;15.65;13.10;;;12.50;42.70;;;;;;5097013;28;20071;-72
2021/08/25 02:45:01;;;;;;;15.77;13.35;;;12.50;43.00;;;;;;5098677;28;20043;-72
2021/08/25 02:47:30;;;;;;;17.05;14.20;;;12.50;43.30;;;;;;5099022;28;20040;-72
2021/08/25 02:49:58;;;;;;;16.50;13.23;;;12.50;43.50;;;;;;5099404;28;20116;-73
2021/08/25 02:52:26;;;;;;;17.08;14.15;;;12.50;44.00;;;;;;5095324;28;20066;-73
2021/08/25 02:54:54;;;;;;;16.85;14.70;;;12.50;43.80;;;;;;5095684;28;20044;-73
2021/08/25 02:57:23;;;;;;;19.83;14.82;;;12.40;44.00;;;;;;5092947;28;20048;-72
2021/08/25 02:59:51;;;;;;;16.67;13.73;;;12.40;44.30;;;;;;5098636;28;20578;-72
2021/08/25 03:02:19;;;;;;;16.20;13.70;;;12.40;44.70;;;;;;5096013;28;20039;-73
2021/08/25 03:04:48;;;;;;;15.82;13.75;;;12.40;44.50;;;;;;5062039;28;20048;-72
2021/08/25 03:07:16;;;;;;;17.55;14.20;;;12.40;44.20;;;;;;5082453;28;20048;-72
2021/08/25 03:09:45;;;;;;;16.52;13.52;;;12.40;44.80;;;;;;5098135;28;20100;-73
2021/08/25 03:12:13;;;;;;;22.08;14.32;;;12.40;45.00;;;;;;5075565;28;20410;-72
2021/08/25 03:14:43;;;;;;;19.60;14.30;;;12.40;45.10;;;;;;5081951;28;20035;-72
2021/08/25 03:17:13;;;;;;;17.33;13.48;;;12.40;45.40;;;;;;5068481;28;20048;-72
2021/08/25 03:19:41;;;;;;;20.15;13.68;;;12.40;45.60;;;;;;5099660;28;20040;-72
2021/08/25 03:22:09;;;;;;;18.25;13.25;;;12.40;45.50;;;;;;5094946;28;20040;-72
2021/08/25 03:24:37;;;;;;;15.45;12.57;;;12.30;45.40;;;;;;5100537;28;20098;-73
2021/08/25 03:27:05;;;;;;;15.98;13.25;;;12.30;45.70;;;;;;5097686;28;20112;-73
2021/08/25 03:29:33;;;;;;;18.02;14.35;;;12.30;45.70;;;;;;5103476;28;20096;-72
2021/08/25 03:32:03;;;;;;;18.52;13.88;;;12.30;45.60;;;;;;5089422;28;20044;-72
2021/08/25 03:34:34;;;;;;;17.23;14.05;;;12.30;45.70;;;;;;5094993;28;20047;-72
2021/08/25 03:37:03;;;;;;;17.83;14.30;;;12.20;45.90;;;;;;5097772;28;20062;-72
2021/08/25 03:39:31;;;;;;;17.63;14.05;;;12.20;46.30;;;;;;5094680;28;20105;-72
2021/08/25 03:41:59;;;;;;;16.55;13.68;;;12.20;46.50;;;;;;5094464;28;20097;-72
2021/08/25 03:44:27;;;;;;;17.23;14.10;;;12.20;47.10;;;;;;5099642;28;20515;-73
2021/08/25 03:46:56;;;;;;;18.45;14.43;;;12.10;47.20;;;;;;5097135;28;20149;-72
2021/08/25 03:49:26;;;;;;;17.48;14.90;;;12.00;47.20;;;;;;5103914;28;20515;-73
2021/08/25 03:51:54;;;;;;;20.75;14.40;;;12.00;47.50;;;;;;5081095;28;20044;-73
2021/08/25 03:54:22;;;;;;;19.30;14.68;;;12.00;47.80;;;;;;5102594;28;20592;-72
2021/08/25 03:56:50;;;;;;;23.13;15.18;;;12.00;47.80;;;;;;5103500;28;20118;-73
2021/08/25 03:59:18;;;;;;;18.55;14.43;;;12.00;48.30;;;;;;5088829;28;20555;-73
2021/08/25 04:01:46;;;;;;;18.23;15.35;;;12.00;48.00;;;;;;5079745;28;20067;-72
2021/08/25 04:04:14;;;;;;;18.15;14.95;;;12.00;48.20;;;;;;5084569;28;20039;-72
2021/08/25 04:06:43;;;;;;;18.98;15.02;;;12.00;48.20;;;;;;5104157;28;20036;-72
2021/08/25 04:09:12;;;;;;;18.20;14.45;;;12.00;47.80;;;;;;5101281;28;20089;-73
2021/08/25 04:11:40;;;;;;;20.80;15.20;;;12.00;47.60;;;;;;5100612;28;20463;-72
2021/08/25 04:14:08;;;;;;;19.08;15.48;;;12.10;47.30;;;;;;5100948;28;20527;-73
2021/08/25 04:16:36;;;;;;;22.42;16.30;;;12.10;47.20;;;;;;5102900;28;20506;-73
2021/08/25 04:19:04;;;;;;;18.80;15.15;;;12.00;47.20;;;;;;5102307;28;20048;-73
2021/08/25 04:21:32;;;;;;;19.80;15.00;;;11.90;47.10;;;;;;5098463;28;20042;-72
2021/08/25 04:24:01;;;;;;;18.30;14.90;;;11.90;48.00;;;;;;5103334;28;20044;-72
2021/08/25 04:26:29;;;;;;;17.75;14.63;;;11.90;48.30;;;;;;5085943;28;20043;-73
2021/08/25 04:28:57;;;;;;;19.50;15.35;;;11.90;48.70;;;;;;5084488;28;20576;-72
2021/08/25 04:31:25;;;;;;;20.42;15.77;;;11.90;48.50;;;;;;5097162;27;20113;-73
2021/08/25 04:33:53;;;;;;;20.23;15.50;;;11.90;48.80;;;;;;5099381;28;20052;-71
2021/08/25 04:36:21;;;;;;;19.25;16.10;;;11.90;48.90;;;;;;5100319;27;20056;-71
2021/08/25 04:38:49;;;;;;;21.38;16.38;;;11.90;49.10;;;;;;5098601;28;20040;-71
2021/08/25 04:41:19;;;;;;;19.35;16.05;;;11.90;48.50;;;;;;5098148;28;20044;-73
2021/08/25 04:43:47;;;;;;;21.48;16.45;;;11.90;48.10;;;;;;5097425;28;20044;-73
2021/08/25 04:46:18;;;;;;;20.90;16.70;;;11.90;48.20;;;;;;5080230;28;20047;-73
2021/08/25 04:48:46;;;;;;;17.98;14.85;;;11.90;48.30;;;;;;5099249;28;20047;-73
2021/08/25 04:51:14;;;;;;;19.58;16.08;;;11.90;48.50;;;;;;5096584;28;20093;-73
2021/08/25 04:53:42;;;;;;;18.95;16.10;;;12.40;43.80;;;;;;5087722;28;20097;-73
2021/08/25 04:56:10;;;;;;;22.20;15.90;;;13.00;37.00;;;;;;5105720;28;20131;-72
2021/08/25 04:58:40;;;;;;;17.85;14.07;;;13.40;30.80;;;;;;5100903;28;20127;-73
2021/08/25 05:01:08;;;;;;;18.63;14.65;;;13.80;25.60;;;;;;5098760;28;20078;-73
2021/08/25 05:03:37;;;;;;;16.95;13.90;;;13.90;23.70;;;;;;5093570;28;20032;-72
2021/08/25 05:06:09;;;;;;;16.38;13.45;;;14.40;20.60;;;;;;5083449;28;20044;-73
2021/08/25 05:08:38;;;;;;;17.38;12.77;;;14.80;15.80;;;;;;5081377;28;20040;-73
2021/08/25 05:11:08;;;;;;;14.32;12.40;;;15.00;11.70;;;;;;5076631;28;20056;-73
2021/08/25 05:13:37;;;;;;;13.98;12.10;;;15.30;11.40;;;;;;5063840;28;20078;-73
2021/08/25 05:16:11;;;;;;;13.82;11.75;;;15.70;8.30;;;;;;5089565;28;20055;-73
2021/08/25 05:18:39;;;;;;;;;;;16.00;6.70;;;;;;5098132;28;20096;-74
2021/08/25 05:21:08;;;;;;;14.73;11.57;;;16.30;4.60;;;;;;5096635;28;20367;-74
2021/08/25 05:23:37;;;;;;;13.27;11.43;;;16.60;3.10;;;;;;5102307;28;20050;-73
2021/08/25 05:26:05;;;;;;;13.30;10.93;;;16.40;2.30;;;;;;5095214;28;20518;-71
2021/08/25 05:28:33;;;;;;;12.13;10.40;;;16.50;3.60;;;;;;5101249;28;20421;-72
2021/08/25 05:31:02;;;;;;;13.10;10.75;;;17.00;1.20;;;;;;5094643;28;20044;-72
2021/08/25 05:33:31;;;;;;;12.27;10.75;;;15.90;1.00;;;;;;5099386;28;20047;-72
2021/08/25 05:35:59;;;;;;;13.57;10.65;;;16.80;2.00;;;;;;5097478;28;20051;-72
2021/08/25 05:38:28;;;;;;;13.07;10.85;;;17.20;1.00;;;;;;5106061;28;20055;-72
2021/08/25 05:40:56;;;;;;;11.32;9.85;;;16.50;2.90;;;;;;5098231;28;20067;-72
2021/08/25 05:43:24;;;;;;;12.07;10.60;;;15.20;10.30;;;;;;5100879;28;20494;-72
2021/08/25 05:45:52;;;;;;;13.73;11.30;;;14.40;15.20;;;;;;5098999;28;20054;-72
2021/08/25 05:48:20;;;;;;;15.05;11.35;;;14.10;19.40;;;;;;5105912;28;20130;-72
2021/08/25 05:50:50;;;;;;;15.63;11.73;;;14.00;20.10;;;;;;5099323;28;20048;-72
2021/08/25 05:53:18;;;;;;;17.02;11.95;;;14.00;22.40;;;;;;5103565;28;20059;-72
2021/08/25 05:55:46;;;;;;;14.95;12.10;;;14.00;21.60;;;;;;5095836;28;20060;-72
2021/08/25 05:58:14;;;;;;;15.05;12.10;;;14.10;21.70;;;;;;5102808;28;20108;-73
2021/08/25 06:00:42;;;;;;;14.07;10.80;;;14.20;21.20;;;;;;5064912;28;20083;-73
2021/08/25 06:03:10;;;;;;;14.73;11.98;;;14.00;23.30;;;;;;5096411;28;20044;-72
2021/08/25 06:05:39;;;;;;;14.60;11.65;;;13.90;23.20;;;;;;5098078;28;20110;-72
2021/08/25 06:08:08;;;;;;;15.30;11.57;;;14.20;22.80;;;;;;5095332;28;20052;-73
2021/08/25 06:10:36;;;;;;;14.07;11.50;;;14.30;22.10;;;;;;5097108;28;20047;-72
2021/08/25 06:13:04;;;;;;;15.65;11.25;;;14.40;21.70;;;;;;5100615;28;20040;-73
2021/08/25 06:15:32;;;;;;;16.70;12.00;;;14.50;20.30;;;;;;5097231;28;20047;-72
2021/08/25 06:18:00;;;;;;;13.75;11.10;;;14.70;18.90;;;;;;5099930;28;20055;-72
2021/08/25 06:20:29;;;;;;;12.55;9.70;;;14.60;19.00;;;;;;5101394;28;20116;-72
2021/08/25 06:22:57;;;;;;;15.95;10.57;;;14.60;19.20;;;;;;5073458;28;20064;-72
2021/08/25 06:25:26;;;;;;;18.90;10.95;;;14.70;18.30;;;;;;5093106;28;20427;-73
2021/08/25 06:27:54;;;;;;;15.10;11.07;;;14.60;18.20;;;;;;5065350;28;20499;-72
2021/08/25 06:30:22;;;;;;;13.20;11.18;;;14.70;18.30;;;;;;5078839;28;20058;-73
2021/08/25 06:32:50;;;;;;;14.90;10.77;;;14.70;18.40;;;;;;5095338;28;20093;-71
2021/08/25 06:35:19;;;;;;;14.90;10.73;;;14.90;18.30;;;;;;5098165;28;20044;-72
2021/08/25 06:37:47;;;;;;;12.73;10.10;;;14.90;17.20;;;;;;5095332;28;20035;-73
2021/08/25 06:40:15;;;;;;;11.63;9.88;;;15.00;15.80;;;;;;5101431;28;20051;-73
2021/08/25 06:42:44;;;;;;;12.85;10.45;;;14.80;15.90;;;;;;5097953;28;20036;-73
2021/08/25 06:45:13;;;;;;;17.10;10.73;;;15.00;16.50;;;;;;5102029;28;20043;-73
2021/08/25 06:47:41;;;;;;;11.82;10.10;;;15.20;15.40;;;;;;5097762;28;20468;-71
2021/08/25 06:50:09;;;;;;;14.70;10.05;;;15.30;15.10;;;;;;5095977;28;20067;-72
2021/08/25 06:52:37;;;;;;;10.98;9.57;;;15.10;14.90;;;;;;5101089;28;20147;-72
2021/08/25 06:55:06;;;;;;;15.23;10.73;;;15.20;15.00;;;;;;5096001;28;20040;-72
2021/08/25 06:57:46;;;;;;;11.68;9.60;;;15.40;13.90;;;;;;5097042;28;20044;-72
2021/08/25 07:00:15;;;;;;;11.48;10.18;;;15.50;12.90;;;;;;5099965;28;20101;-72
2021/08/25 07:02:43;;;;;;;12.02;10.43;;;15.50;12.00;;;;;;5096005;28;20052;-72
2021/08/25 07:05:12;;;;;;;14.18;11.48;;;15.70;11.70;;;;;;5095436;28;20518;-72
2021/08/25 07:07:40;;;;;;;11.57;9.80;;;15.70;11.70;;;;;;5099988;28;20039;-72
2021/08/25 07:10:09;;;;;;;12.73;10.18;;;15.80;10.80;;;;;;5094980;28;20056;-74
2021/08/25 07:12:37;;;;;;;14.43;10.45;;;15.90;11.20;;;;;;5093515;28;20139;-72
2021/08/25 07:15:07;;;;;;;11.68;10.48;;;16.00;10.30;;;;;;5098303;28;20474;-72
2021/08/25 07:17:35;;;;;;;13.23;9.88;;;16.10;10.10;;;;;;5100088;28;20097;-72
2021/08/25 07:20:03;;;;;;;10.80;9.35;;;15.90;11.30;;;;;;5097054;28;20052;-72
2021/08/25 07:22:31;;;;;;;14.52;9.82;;;16.10;10.10;;;;;;5094134;28;20643;-72
2021/08/25 07:25:00;;;;;;;13.77;9.60;;;16.30;8.40;;;;;;5099554;28;20047;-72
2021/08/25 07:27:28;;;;;;;9.90;8.77;;;16.20;8.80;;;;;;5100269;28;20040;-72
2021/08/25 07:29:55;;;;;;;10.70;8.85;;;16.40;8.50;;;;;;5101259;28;20044;-72
2021/08/25 07:32:25;;;;;;;12.65;9.98;;;16.50;8.10;;;;;;5096706;28;20048;-73
2021/08/25 07:34:53;;;;;;;11.75;8.95;;;16.30;7.60;;;;;;5096447;28;20072;-73
2021/08/25 07:37:21;;;;;;;14.93;9.52;;;16.30;7.90;;;;;;5091429;28;20040;-72
2021/08/25 07:39:49;;;;;;;10.23;9.15;;;16.50;7.80;;;;;;5093007;28;20052;-72
2021/08/25 07:42:17;;;;;;;10.70;9.48;;;16.40;8.50;;;;;;5077423;28;20040;-71
2021/08/25 07:44:45;;;;;;;11.02;8.93;;;16.40;9.20;;;;;;5080440;28;20044;-74
2021/08/25 07:47:13;;;;;;;13.57;9.73;;;16.40;8.60;;;;;;5099117;28;20078;-74
2021/08/25 07:49:43;;;;;;;11.43;9.13;;;16.30;8.40;;;;;;5096825;28;20068;-71
2021/08/25 07:52:11;;;;;;;11.07;8.15;;;16.30;8.90;;;;;;5101732;28;20071;-71
2021/08/25 07:54:39;;;;;;;12.32;9.10;;;16.60;8.60;;;;;;5091566;28;20465;-72
2021/08/25 07:57:07;;;;;;;14.65;9.75;;;16.50;8.50;;;;;;5086466;28;20044;-72
2021/08/25 07:59:35;;;;;;;14.80;9.50;;;16.10;11.20;;;;;;5071692;28;20044;-72
2021/08/25 08:02:04;;;;;;;11.30;9.63;;;16.30;12.20;;;;;;5084442;28;20047;-71
2021/08/25 08:04:32;;;;;;;13.25;8.80;;;16.70;9.00;;;;;;5086564;28;20084;-72
2021/08/25 08:07:02;;;;;;;10.82;8.82;;;16.70;6.90;;;;;;5085216;28;20558;-72
2021/08/25 08:09:30;;;;;;;13.38;9.00;;;16.60;8.60;;;;;;5088758;28;20123;-73
2021/08/25 08:11:58;;;;;;;11.45;9.73;;;16.70;9.10;;;;;;5085362;28;20040;-73
2021/08/25 08:14:26;;;;;;;12.82;10.68;;;17.00;7.90;;;;;;5089774;28;20105;-72
2021/08/25 08:16:56;;;;;;;11.57;8.18;;;17.50;7.20;;;;;;5085417;28;20074;-73
2021/08/25 08:19:29;;;;;;;11.15;8.00;;;17.80;4.60;;;;;;5082976;28;20047;-72
2021/08/25 08:21:59;;;;;;;10.40;7.05;;;17.90;1.90;;;;;;5063888;28;20049;-74
2021/08/25 08:24:29;;;;;;;8.23;7.18;;;17.80;1.00;;;;;;5045684;28;20058;-73
2021/08/25 08:26:59;;;;;;;10.60;6.40;;;17.60;3.00;;;;;;5076298;28;20051;-71
2021/08/25 08:29:29;;;;;;;8.32;6.10;;;17.50;1.00;;;;;;5077710;28;20734;-72
2021/08/25 08:31:57;;;;;;;8.40;6.88;;;17.90;1.00;;;;;;5077148;28;20440;-72
2021/08/25 08:34:25;;;;;;;10.23;7.72;;;18.00;1.00;;;;;;5101147;28;20044;-72
2021/08/25 08:36:53;;;;;;;7.13;6.35;;;18.00;1.00;;;;;;5097975;28;20086;-72
2021/08/25 08:39:21;;;;;;;8.82;6.97;;;18.00;1.00;;;;;;5101824;28;20491;-72
2021/08/25 08:41:50;;;;;;;7.38;6.68;;;18.10;1.00;;;;;;5094662;28;20043;-72
2021/08/25 08:44:20;;;;;;;9.00;6.93;;;18.10;1.00;;;;;;5102833;28;20096;-72
2021/08/25 08:46:50;;;;;;;6.70;5.90;;;18.00;1.00;;;;;;5102618;28;20495;-72
2021/08/25 08:49:18;;;;;;;7.50;6.53;;;18.30;1.00;;;;;;5101151;28;20131;-73
2021/08/25 08:51:48;;;;;;;14.50;6.90;;;18.20;1.00;;;;;;5095846;28;20084;-72
2021/08/25 08:54:18;;;;;;;7.85;5.57;;;18.00;1.00;;;;;;5100576;28;20058;-72
2021/08/25 08:56:46;;;;;;;10.32;6.63;;;18.10;1.00;;;;;;5101685;28;20047;-73
2021/08/25 08:59:15;;;;;;;6.60;5.78;;;18.30;1.00;;;;;;5105215;28;20040;-72
2021/08/25 09:01:44;;;;;;;9.57;6.35;;;18.50;1.00;;;;;;5097193;28;21168;-72
2021/08/25 09:04:30;;;;;;;7.80;5.32;;;18.50;1.00;;;;;;5104436;28;20044;-73
2021/08/25 09:06:58;;;;;;;6.25;5.30;;;18.50;1.00;;;;;;5099337;28;20130;-73
2021/08/25 09:09:26;;;;;;;7.85;5.30;;;18.50;1.00;;;;;;5104299;28;20105;-73
2021/08/25 09:11:56;;;;;;;8.88;5.82;;;18.70;1.00;;;;;;5101342;28;20101;-73
2021/08/25 09:14:27;;;;;;;8.23;5.82;;;18.90;1.00;;;;;;5101721;28;20128;-72
2021/08/25 09:17:02;;;;;;;7.20;5.32;;;18.90;1.00;;;;;;5099079;28;20100;-73
2021/08/25 09:19:35;;;;;;;6.72;4.95;;;19.00;1.00;;;;;;5103109;28;20040;-73
2021/08/25 09:22:17;;;;;;;8.65;5.20;;;18.80;1.00;;;;;;5099278;28;20063;-73
2021/08/25 09:24:46;;;;;;;10.05;5.47;;;18.80;1.00;;;;;;5102316;28;20154;-72
2021/08/25 09:27:15;;;;;;;7.32;5.20;;;19.20;1.00;;;;;;5098721;28;20056;-73
2021/08/25 09:29:54;;;;;;;5.60;4.78;;;19.30;1.00;;;;;;5100517;28;20123;-72
2021/08/25 09:32:24;;;;;;;5.68;4.63;;;19.40;1.00;;;;;;5095971;28;20059;-72
2021/08/25 09:34:55;;;;;;;5.63;4.63;;;19.50;1.00;;;;;;5103522;28;20074;-72
2021/08/25 09:37:25;;;;;;;9.20;4.60;;;19.10;1.00;;;;;;5096504;28;20066;-73
2021/08/25 09:39:54;;;;;;;5.65;4.30;;;19.30;1.00;;;;;;5095575;28;20055;-73
2021/08/25 09:42:43;;;;;;;4.88;4.30;;;19.70;1.00;;;;;;5088885;28;20533;-72
2021/08/25 09:45:14;;;;;;;6.07;4.00;;;19.20;1.00;;;;;;5091349;28;20437;-72
2021/08/25 09:47:47;;;;;;;6.68;3.80;;;19.60;1.00;;;;;;5088233;28;20506;-72
2021/08/25 09:50:16;;;;;;;5.10;4.60;;;19.60;1.00;;;;;;5095068;28;20150;-72
2021/08/25 09:52:45;;;;;;;5.10;4.50;;;19.50;1.00;;;;;;5094735;28;20050;-72
2021/08/25 09:55:13;;;;;;;4.70;3.90;;;19.80;1.00;;;;;;5091564;28;20052;-73
2021/08/25 09:57:43;;;;;;;4.25;3.60;;;19.70;1.00;;;;;;5092815;28;20120;-73
2021/08/25 10:00:14;;;;;;;4.55;3.83;;;19.90;1.00;;;;;;5095491;28;20063;-73
2021/08/25 10:02:42;;;;;;;4.72;3.92;;;19.70;1.00;;;;;;5071600;28;20062;-73
2021/08/25 10:05:11;;;;;;;10.48;4.20;;;19.90;1.00;;;;;;5092795;28;21016;-73
2021/08/25 10:07:39;;;;;;;6.10;4.00;;;19.70;1.00;;;;;;5091715;28;20118;-73
2021/08/25 10:10:08;;;;;;;4.68;3.80;;;19.90;1.00;;;;;;5095025;28;20112;-73
2021/08/25 10:12:36;;;;;;;6.13;4.50;;;19.90;1.00;;;;;;5091946;28;20094;-73
2021/08/25 10:15:41;;;;;;;5.10;3.85;;;20.10;1.00;;;;;;5093220;28;20051;-72
2021/08/25 10:18:37;;;;;;;7.10;4.00;;;19.80;1.00;;;;;;5095001;28;20123;-73
2021/08/25 10:21:43;;;;;;;5.93;3.92;;;20.10;1.00;;;;;;5090857;28;20524;-73
2021/08/25 10:24:11;;;;;;;8.05;4.07;;;20.40;1.00;;;;;;5073431;28;20058;-72
2021/08/25 10:27:09;;;;;;;6.88;4.53;;;20.50;1.00;;;;;;5090713;28;20043;-72
2021/08/25 10:30:14;;;;;;;6.82;4.28;;;20.20;1.00;;;;;;5092848;28;20529;-72
2021/08/25 10:33:01;;;;;;;;;;;20.70;1.00;;;;;;5094014;28;20563;-72
2021/08/25 10:35:33;;;;;;;5.22;4.13;;;20.30;1.00;;;;;;5094872;28;19927;-71
2021/08/25 10:38:18;;;;;;;5.05;4.07;;;20.40;1.00;;;;;;5093310;28;20058;-72
2021/08/25 10:40:46;;;;;;;6.05;4.50;;;20.30;1.00;;;;;;5089536;28;20104;-72
2021/08/25 10:43:40;;;;;;;5.80;4.25;;;20.50;1.00;;;;;;5094758;28;20544;-72
2021/08/25 10:46:10;;;;;;;6.28;4.22;;;20.60;1.00;;;;;;5092467;28;20684;-72
2021/08/25 10:48:46;;;;;;;6.88;4.40;;;20.30;1.00;;;;;;5093933;28;20080;-73
2021/08/25 10:51:33;;;;;;;6.18;3.78;;;20.40;1.00;;;;;;5090737;28;20431;-73
2021/08/25 10:54:04;;;;;;;6.88;3.50;;;20.80;1.00;;;;;;5088241;28;20050;-72
2021/08/25 10:56:37;;;;;;;5.15;4.10;;;21.30;1.00;;;;;;5092346;28;20486;-73
2021/08/25 10:59:07;;;;;;;5.82;4.10;;;20.70;1.00;;;;;;5094238;28;20043;-72
2021/08/25 11:01:38;;;;;;;6.20;4.38;;;20.90;1.00;;;;;;5086725;28;20050;-72
2021/08/25 11:04:11;;;;;;;6.43;3.63;;;20.60;1.00;;;;;;5091274;28;20040;-72
2021/08/25 11:06:43;;;;;;;6.88;3.95;;;20.40;1.00;;;;;;5069738;28;20052;-72
2021/08/25 11:09:25;;;;;;;6.18;4.53;;;20.40;1.00;;;;;;5074267;28;20139;-73
2021/08/25 11:11:57;;;;;;;7.57;4.13;;;21.00;1.00;;;;;;5074131;28;20079;-72
2021/08/25 11:14:28;;;;;;;5.57;4.05;;;20.90;1.00;;;;;;5076694;28;20498;-73
2021/08/25 11:16:58;;;;;;;5.05;3.80;;;20.60;1.00;;;;;;5076153;28;20089;-72
2021/08/25 11:19:28;;;;;;;5.78;4.30;;;21.00;1.00;;;;;;5082321;28;20097;-73
2021/08/25 11:22:00;;;;;;;5.90;4.15;;;20.70;1.00;;;;;;5074494;28;20047;-72
2021/08/25 11:24:40;;;;;;;6.15;4.03;;;20.60;1.00;;;;;;5097851;28;20059;-71
2021/08/25 11:27:26;;;;;;;5.03;3.75;;;20.70;1.00;;;;;;5088109;28;20040;-72
2021/08/25 11:30:12;;;;;;;5.60;3.97;;;20.50;1.00;;;;;;5082960;28;20048;-73
2021/08/25 11:32:59;;;;;;;8.57;4.10;;;21.00;1.00;;;;;;5077873;28;20456;-73
2021/08/25 11:35:30;;;;;;;5.95;4.38;;;20.60;1.00;;;;;;5087511;28;20410;-72
2021/08/25 11:38:02;;;;;;;5.50;4.13;;;20.50;1.00;;;;;;5092459;28;20071;-72
2021/08/25 11:40:31;;;;;;;7.15;4.45;;;20.60;1.00;;;;;;5075702;28;20048;-72
2021/08/25 11:43:06;;;;;;;4.55;3.63;;;21.00;1.00;;;;;;5081964;28;20040;-72
2021/08/25 11:45:35;;;;;;;6.55;4.35;;;20.90;1.00;;;;;;5095213;28;20043;-74
2021/08/25 11:48:05;;;;;;;7.30;4.45;;;20.90;1.00;;;;;;5095107;28;20059;-73
2021/08/25 11:50:35;;;;;;;6.80;4.25;;;21.00;1.00;;;;;;5096621;28;20044;-73
2021/08/25 11:53:13;;;;;;;8.02;4.50;;;21.00;1.00;;;;;;5101512;28;20047;-72
2021/08/25 11:55:41;;;;;;;6.93;4.45;;;21.00;1.00;;;;;;5099059;28;20522;-73
2021/08/25 11:58:22;;;;;;;7.93;4.55;;;20.90;1.00;;;;;;5096392;28;20043;-73
2021/08/25 12:00:51;;;;;;;6.50;4.25;;;20.90;1.00;;;;;;5095485;28;20047;-72
2021/08/25 12:03:19;;;;;;;5.68;4.05;;;21.00;1.00;;;;;;5100716;28;20097;-72
2021/08/25 12:05:52;;;;;;;6.72;4.38;;;21.40;1.00;;;;;;5093593;28;20137;-73
2021/08/25 12:08:23;;;;;;;5.78;3.92;;;21.20;1.00;;;;;;5097751;28;20047;-72
2021/08/25 12:11:03;;;;;;;5.95;4.55;;;21.20;1.00;;;;;;5101572;27;20776;-73
2021/08/25 12:13:33;;;;;;;7.80;4.78;;;21.20;1.00;;;;;;5099903;27;20065;-73
2021/08/25 12:16:02;;;;;;;13.20;4.18;;;21.20;1.00;;;;;;5103403;28;20044;-73
2021/08/25 12:18:45;;;;;;;8.60;4.65;;;21.20;1.00;;;;;;5102435;28;20039;-73
2021/08/25 12:21:13;;;;;;;7.38;4.45;;;21.30;1.00;;;;;;5097904;27;20132;-73
2021/08/25 12:23:57;;;;;;;7.68;4.22;;;21.20;1.00;;;;;;5098708;28;20089;-72
2021/08/25 12:26:25;;;;;;;6.43;4.22;;;21.40;1.00;;;;;;5080792;28;20035;-72
2021/08/25 12:28:56;;;;;;;6.85;4.55;;;21.20;1.00;;;;;;5104558;28;20702;-72
2021/08/25 12:31:27;;;;;;;6.40;4.13;;;21.20;1.00;;;;;;5100926;28;20044;-72
2021/08/25 12:34:06;;;;;;;7.93;4.82;;;21.40;1.00;;;;;;5101731;28;20102;-72
2021/08/25 12:36:35;;;;;;;8.82;4.78;;;20.60;1.00;;;;;;5100799;28;20097;-73
2021/08/25 12:39:13;;;;;;;6.22;4.47;;;20.90;1.00;;;;;;5101170;28;20055;-73
2021/08/25 12:41:42;;;;;;;7.68;4.82;;;20.80;1.00;;;;;;5097877;28;20127;-72
2021/08/25 12:44:11;;;;;;;6.20;4.40;;;21.00;1.00;;;;;;5104382;27;20051;-72
2021/08/25 12:46:49;;;;;;;6.28;4.35;;;21.10;1.00;;;;;;5100040;28;20047;-72
2021/08/25 12:49:18;;;;;;;7.70;4.78;;;21.20;1.00;;;;;;5101962;28;20499;-73
2021/08/25 12:51:46;;;;;;;7.80;5.32;;;21.40;1.00;;;;;;5100750;27;20563;-72
2021/08/25 12:54:16;;;;;;;8.68;5.45;;;21.50;1.00;;;;;;5093787;28;20064;-74
2021/08/25 12:56:44;;;;;;;8.23;4.90;;;21.50;1.00;;;;;;5098282;28;20728;-73